sensor_id;sensor_type;location;lat;lon;timestamp;pressure;altitude;pressure_sealevel;temperature;humidity
82171;BME280;71755;48.038;14.346;2024-03-02T00:00:02;96478.31;;;6.60;100.00
82171;BME280;71755;48.038;14.346;2024-03-02T00:02:45;96477.28;;;6.61;100.00
82171;BME280;71755;48.038;14.346;2024-03-02T00:05:18;96477.75;;;6.58;100.00
82171;BME280;71755;48.038;14.346;2024-03-02T00:07:52;96470.06;;;6.56;100.00
82171;BME280;71755;48.038;14.346;2024-03-02T00:10:26;96471.91;;;6.56;100.00
82171;BME280;71755;48.038;14.346;2024-03-02T00:12:57;96477.44;;;6.54;100.00
82171;BME280;71755;48.038;14.346;2024-03-02T00:17:56;96467.03;;;6.48;100.00
82171;BME280;71755;48.038;14.346;2024-03-02T00:20:25;96469.69;;;6.48;100.00
82171;BME280;71755;48.038;14.346;2024-03-02T00:23:19;96467.03;;;6.48;100.00
82171;BME280;71755;48.038;14.346;2024-03-02T00:25:52;96463.00;;;6.45;100.00
82171;BME280;71755;48.038;14.346;2024-03-02T00:31:06;96457.22;;;6.32;100.00
82171;BME280;71755;48.038;14.346;2024-03-02T00:33:34;96457.22;;;6.32;100.00
82171;BME280;71755;48.038;14.346;2024-03-02T00:36:02;96464.16;;;6.33;100.00
82171;BME280;71755;48.038;14.346;2024-03-02T00:38:30;96461.97;;;6.30;100.00
82171;BME280;71755;48.038;14.346;2024-03-02T00:41:07;96468.56;;;6.27;100.00
82171;BME280;71755;48.038;14.346;2024-03-02T00:44:09;96463.59;;;6.31;100.00
82171;BME280;71755;48.038;14.346;2024-03-02T00:46:40;96464.16;;;6.33;100.00
82171;BME280;71755;48.038;14.346;2024-03-02T00:49:22;96461.97;;;6.30;100.00
82171;BME280;71755;48.038;14.346;2024-03-02T00:51:49;96462.78;;;6.30;100.00
82171;BME280;71755;48.038;14.346;2024-03-02T00:54:20;96464.63;;;6.30;100.00
82171;BME280;71755;48.038;14.346;2024-03-02T00:56:47;96460.94;;;6.31;100.00
82171;BME280;71755;48.038;14.346;2024-03-02T00:59:14;96456.91;;;6.28;100.00
82171;BME280;71755;48.038;14.346;2024-03-02T01:01:40;96467.28;;;6.30;100.00
82171;BME280;71755;48.038;14.346;2024-03-02T01:04:07;96465.44;;;6.30;100.00
82171;BME280;71755;48.038;14.346;2024-03-02T01:06:37;96461.41;;;6.27;100.00
82171;BME280;71755;48.038;14.346;2024-03-02T01:09:03;96461.66;;;6.26;100.00
82171;BME280;71755;48.038;14.346;2024-03-02T01:11:30;96459.00;;;6.26;100.00
82171;BME280;71755;48.038;14.346;2024-03-02T01:13:56;96455.00;;;6.23;100.00
82171;BME280;71755;48.038;14.346;2024-03-02T01:16:22;96463.19;;;6.22;100.00
82171;BME280;71755;48.038;14.346;2024-03-02T01:18:48;96461.03;;;6.19;100.00
82171;BME280;71755;48.038;14.346;2024-03-02T01:21:14;96462.09;;;6.18;100.00
82171;BME280;71755;48.038;14.346;2024-03-02T01:23:40;96461.03;;;6.19;100.00
82171;BME280;71755;48.038;14.346;2024-03-02T01:26:06;96469.31;;;6.22;100.00
82171;BME280;71755;48.038;14.346;2024-03-02T01:28:33;96449.69;;;6.23;100.00
82171;BME280;71755;48.038;14.346;2024-03-02T01:30:58;96453.94;;;6.24;100.00
82171;BME280;71755;48.038;14.346;2024-03-02T01:33:24;96449.44;;;6.25;100.00
82171;BME280;71755;48.038;14.346;2024-03-02T01:35:50;96453.41;;;6.22;100.00
82171;BME280;71755;48.038;14.346;2024-03-02T01:38:16;96449.69;;;6.23;100.00
82171;BME280;71755;48.038;14.346;2024-03-02T01:40:42;96452.28;;;6.18;100.00
82171;BME280;71755;48.038;14.346;2024-03-02T01:43:10;96452.28;;;6.18;100.00
82171;BME280;71755;48.038;14.346;2024-03-02T01:45:35;96462.88;;;6.18;100.00
82171;BME280;71755;48.038;14.346;2024-03-02T01:48:05;96452.53;;;6.17;100.00
82171;BME280;71755;48.038;14.346;2024-03-02T01:50:32;96459.19;;;6.19;100.00
82171;BME280;71755;48.038;14.346;2024-03-02T01:53:00;96458.13;;;6.20;100.00
82171;BME280;71755;48.038;14.346;2024-03-02T01:55:26;96455.50;;;6.20;100.00
82171;BME280;71755;48.038;14.346;2024-03-02T01:57:54;96461.28;;;6.17;100.00
82171;BME280;71755;48.038;14.346;2024-03-02T02:00:21;96453.09;;;6.19;100.00
82171;BME280;71755;48.038;14.346;2024-03-02T02:02:50;96454.94;;;6.18;100.00
82171;BME280;71755;48.038;14.346;2024-03-02T02:05:16;96448.81;;;6.18;100.00
82171;BME280;71755;48.038;14.346;2024-03-02T02:07:43;96455.19;;;6.17;100.00
82171;BME280;71755;48.038;14.346;2024-03-02T02:10:10;96460.00;;;6.20;100.00
82171;BME280;71755;48.038;14.346;2024-03-02T02:12:36;96453.88;;;6.19;100.00
82171;BME280;71755;48.038;14.346;2024-03-02T02:15:49;96452.28;;;6.18;100.00
82171;BME280;71755;48.038;14.346;2024-03-02T02:17:49;96452.28;;;6.18;100.00
82171;BME280;71755;48.038;14.346;2024-03-02T02:20:16;96449.06;;;6.16;100.00
82171;BME280;71755;48.038;14.346;2024-03-02T02:25:25;96436.06;;;6.15;100.00
82171;BME280;71755;48.038;14.346;2024-03-02T02:27:51;96444.81;;;6.15;100.00
82171;BME280;71755;48.038;14.346;2024-03-02T02:30:29;96436.84;;;6.15;100.00
82171;BME280;71755;48.038;14.346;2024-03-02T02:32:56;96432.84;;;6.13;100.00
82171;BME280;71755;48.038;14.346;2024-03-02T02:35:22;96430.44;;;6.11;100.00
82171;BME280;71755;48.038;14.346;2024-03-02T02:37:50;96431.00;;;6.13;100.00
82171;BME280;71755;48.038;14.346;2024-03-02T02:40:17;96430.19;;;6.13;100.00
82171;BME280;71755;48.038;14.346;2024-03-02T02:42:46;96431.56;;;6.15;100.00
82171;BME280;71755;48.038;14.346;2024-03-02T02:45:13;96430.50;;;6.16;100.00
82171;BME280;71755;48.038;14.346;2024-03-02T02:47:41;96429.94;;;6.14;100.00
82171;BME280;71755;48.038;14.346;2024-03-02T02:50:08;96422.00;;;6.14;100.00
82171;BME280;71755;48.038;14.346;2024-03-02T02:52:35;96417.75;;;6.13;100.00
82171;BME280;71755;48.038;14.346;2024-03-02T02:55:06;96414.28;;;6.13;100.00
82171;BME280;71755;48.038;14.346;2024-03-02T02:57:33;96414.03;;;6.14;100.00
82171;BME280;71755;48.038;14.346;2024-03-02T03:00:11;96417.50;;;6.15;100.00
82171;BME280;71755;48.038;14.346;2024-03-02T03:02:44;96414.84;;;6.15;100.00
82171;BME280;71755;48.038;14.346;2024-03-02T03:05:12;96416.13;;;6.12;100.00
82171;BME280;71755;48.038;14.346;2024-03-02T03:07:40;96412.44;;;6.13;100.00
82171;BME280;71755;48.038;14.346;2024-03-02T03:10:07;96412.44;;;6.13;100.00
82171;BME280;71755;48.038;14.346;2024-03-02T03:12:35;96404.72;;;6.12;100.00
82171;BME280;71755;48.038;14.346;2024-03-02T03:15:01;96410.84;;;6.12;100.00
82171;BME280;71755;48.038;14.346;2024-03-02T03:17:27;96414.53;;;6.11;100.00
82171;BME280;71755;48.038;14.346;2024-03-02T03:19:53;96409.72;;;6.08;100.00
82171;BME280;71755;48.038;14.346;2024-03-02T03:22:19;96418.72;;;6.07;100.00
82171;BME280;71755;48.038;14.346;2024-03-02T03:24:45;96416.06;;;6.07;100.00
82171;BME280;71755;48.038;14.346;2024-03-02T03:27:11;96408.13;;;6.07;100.00
82171;BME280;71755;48.038;14.346;2024-03-02T03:29:37;96418.16;;;6.05;100.00
82171;BME280;71755;48.038;14.346;2024-03-02T03:32:04;96419.44;;;6.03;100.00
82171;BME280;71755;48.038;14.346;2024-03-02T03:34:34;96415.50;;;6.05;100.00
82171;BME280;71755;48.038;14.346;2024-03-02T03:37:01;96419.53;;;6.08;100.00
82171;BME280;71755;48.038;14.346;2024-03-02T03:39:27;96422.97;;;6.08;100.00
82171;BME280;71755;48.038;14.346;2024-03-02T03:41:53;96421.63;;;6.06;100.00
82171;BME280;71755;48.038;14.346;2024-03-02T03:44:19;96415.75;;;6.04;100.00
82171;BME280;71755;48.038;14.346;2024-03-02T03:46:45;96410.44;;;6.04;100.00
82171;BME280;71755;48.038;14.346;2024-03-02T03:49:11;96412.31;;;6.03;100.00
82171;BME280;71755;48.038;14.346;2024-03-02T03:51:36;96415.50;;;6.05;100.00
82171;BME280;71755;48.038;14.346;2024-03-02T03:54:02;96404.91;;;6.05;100.00
82171;BME280;71755;48.038;14.346;2024-03-02T03:56:28;96403.31;;;6.04;100.00
82171;BME280;71755;48.038;14.346;2024-03-02T03:58:54;96402.25;;;6.05;100.00
82171;BME280;71755;48.038;14.346;2024-03-02T04:01:20;96399.59;;;6.05;100.00
82171;BME280;71755;48.038;14.346;2024-03-02T04:03:48;96403.31;;;6.04;100.00
82171;BME280;71755;48.038;14.346;2024-03-02T04:06:14;96406.50;;;6.06;100.00
82171;BME280;71755;48.038;14.346;2024-03-02T04:08:42;96412.31;;;6.03;100.00
82171;BME280;71755;48.038;14.346;2024-03-02T04:11:08;96410.69;;;6.02;100.00
82171;BME280;71755;48.038;14.346;2024-03-02T04:13:34;96400.09;;;6.02;100.00
82171;BME280;71755;48.038;14.346;2024-03-02T04:15:59;96410.94;;;6.01;100.00
82171;BME280;71755;48.038;14.346;2024-03-02T04:18:25;96412.78;;;6.00;100.00
82171;BME280;71755;48.038;14.346;2024-03-02T04:20:51;96415.19;;;6.02;100.00
82171;BME280;71755;48.038;14.346;2024-03-02T04:23:17;96413.34;;;6.02;100.00
82171;BME280;71755;48.038;14.346;2024-03-02T04:25:43;96408.28;;;6.01;100.00
82171;BME280;71755;48.038;14.346;2024-03-02T04:28:08;96411.75;;;6.01;100.00
82171;BME280;71755;48.038;14.346;2024-03-02T04:30:34;96413.03;;;5.99;100.00
82171;BME280;71755;48.038;14.346;2024-03-02T04:33:00;96410.38;;;5.99;100.00
82171;BME280;71755;48.038;14.346;2024-03-02T04:35:28;96413.34;;;6.02;100.00
82171;BME280;71755;48.038;14.346;2024-03-02T04:37:54;96410.69;;;6.02;100.00
82171;BME280;71755;48.038;14.346;2024-03-02T04:40:20;96413.84;;;5.99;100.00
82171;BME280;71755;48.038;14.346;2024-03-02T04:42:45;96408.03;;;6.02;100.00
82171;BME280;71755;48.038;14.346;2024-03-02T04:45:11;96412.31;;;6.03;100.00
82171;BME280;71755;48.038;14.346;2024-03-02T04:47:37;96414.41;;;6.01;100.00
82171;BME280;71755;48.038;14.346;2024-03-02T04:50:03;96412.31;;;6.03;100.00
82171;BME280;71755;48.038;14.346;2024-03-02T04:52:29;96406.44;;;6.01;100.00
82171;BME280;71755;48.038;14.346;2024-03-02T04:54:54;96410.69;;;6.02;100.00
82171;BME280;71755;48.038;14.346;2024-03-02T04:57:43;96416.81;;;6.03;100.00
82171;BME280;71755;48.038;14.346;2024-03-02T05:00:10;96414.72;;;6.05;100.00
82171;BME280;71755;48.038;14.346;2024-03-02T05:02:36;96414.16;;;6.03;100.00
82171;BME280;71755;48.038;14.346;2024-03-02T05:05:02;96405.16;;;6.04;100.00
82171;BME280;71755;48.038;14.346;2024-03-02T05:07:28;96410.13;;;6.00;100.00
82171;BME280;71755;48.038;14.346;2024-03-02T05:09:54;96409.09;;;6.01;100.00
82171;BME280;71755;48.038;14.346;2024-03-02T05:12:19;96402.19;;;6.00;100.00
82171;BME280;71755;48.038;14.346;2024-03-02T05:14:48;96412.53;;;6.02;100.00
82171;BME280;71755;48.038;14.346;2024-03-02T05:17:14;96401.69;;;6.03;100.00
82171;BME280;71755;48.038;14.346;2024-03-02T05:19:40;96409.66;;;6.03;100.00
82171;BME280;71755;48.038;14.346;2024-03-02T05:22:06;96408.84;;;6.03;100.00
82171;BME280;71755;48.038;14.346;2024-03-02T05:24:31;96397.69;;;6.01;100.00
82171;BME280;71755;48.038;14.346;2024-03-02T05:26:57;96394.22;;;6.00;100.00
82171;BME280;71755;48.038;14.346;2024-03-02T05:29:22;96395.84;;;6.01;100.00
82171;BME280;71755;48.038;14.346;2024-03-02T05:31:48;96398.50;;;6.01;100.00
82171;BME280;71755;48.038;14.346;2024-03-02T05:34:15;96393.75;;;6.03;100.00
82171;BME280;71755;48.038;14.346;2024-03-02T05:36:41;96396.41;;;6.03;100.00
82171;BME280;71755;48.038;14.346;2024-03-02T05:39:06;96406.44;;;6.01;100.00
82171;BME280;71755;48.038;14.346;2024-03-02T05:41:35;96409.59;;;5.98;100.00
82171;BME280;71755;48.038;14.346;2024-03-02T05:44:01;96410.13;;;6.00;100.00
82171;BME280;71755;48.038;14.346;2024-03-02T05:46:27;96407.50;;;6.00;100.00
82171;BME280;71755;48.038;14.346;2024-03-02T05:48:53;96411.75;;;6.01;100.00
82171;BME280;71755;48.038;14.346;2024-03-02T05:51:19;96414.16;;;6.03;100.00
82171;BME280;71755;48.038;14.346;2024-03-02T05:53:45;96405.88;;;5.99;100.00
82171;BME280;71755;48.038;14.346;2024-03-02T05:56:11;96414.31;;;5.96;100.00
82171;BME280;71755;48.038;14.346;2024-03-02T05:58:38;96420.88;;;5.93;100.00
82171;BME280;71755;48.038;14.346;2024-03-02T06:01:22;96419.63;;;5.96;100.00
82171;BME280;71755;48.038;14.346;2024-03-02T06:03:55;96426.19;;;5.93;100.00
82171;BME280;71755;48.038;14.346;2024-03-02T06:06:22;96420.78;;;5.88;100.00
82171;BME280;71755;48.038;14.346;2024-03-02T06:08:48;96420.47;;;5.85;100.00
82171;BME280;71755;48.038;14.346;2024-03-02T06:11:14;96427.94;;;5.88;100.00
82171;BME280;71755;48.038;14.346;2024-03-02T06:13:40;96438.53;;;5.88;100.00
82171;BME280;71755;48.038;14.346;2024-03-02T06:16:06;96439.56;;;5.87;100.00
82171;BME280;71755;48.038;14.346;2024-03-02T06:18:31;96441.19;;;5.88;100.00
82171;BME280;71755;48.038;14.346;2024-03-02T06:20:57;96441.53;;;5.91;100.00
82171;BME280;71755;48.038;14.346;2024-03-02T06:23:23;96439.34;;;5.88;100.00
82171;BME280;71755;48.038;14.346;2024-03-02T06:25:48;96439.94;;;5.90;100.00
82171;BME280;71755;48.038;14.346;2024-03-02T06:28:14;96450.84;;;5.94;100.00
82171;BME280;71755;48.038;14.346;2024-03-02T06:30:41;96446.34;;;5.94;100.00
82171;BME280;71755;48.038;14.346;2024-03-02T06:33:09;96446.13;;;5.96;100.00
82171;BME280;71755;48.038;14.346;2024-03-02T06:35:35;96449.91;;;6.00;100.00
82171;BME280;71755;48.038;14.346;2024-03-02T06:38:01;96451.03;;;6.04;100.00
82171;BME280;71755;48.038;14.346;2024-03-02T06:40:27;96459.53;;;6.06;100.00
82171;BME280;71755;48.038;14.346;2024-03-02T06:42:53;96450.53;;;6.07;100.00
82171;BME280;71755;48.038;14.346;2024-03-02T06:45:20;96450.84;;;6.11;100.00
82171;BME280;71755;48.038;14.346;2024-03-02T06:47:46;96454.53;;;6.10;100.00
82171;BME280;71755;48.038;14.346;2024-03-02T06:50:12;96458.31;;;6.14;100.00
82171;BME280;71755;48.038;14.346;2024-03-02T06:52:38;96462.31;;;6.16;100.00
82171;BME280;71755;48.038;14.346;2024-03-02T06:55:04;96466.59;;;6.17;100.00
82171;BME280;71755;48.038;14.346;2024-03-02T06:57:31;96464.97;;;6.16;100.00
82171;BME280;71755;48.038;14.346;2024-03-02T06:59:57;96463.88;;;6.12;100.00
82171;BME280;71755;48.038;14.346;2024-03-02T07:02:24;96471.81;;;6.12;100.00
82171;BME280;71755;48.038;14.346;2024-03-02T07:04:54;96464.28;;;6.04;100.00
82171;BME280;71755;48.038;14.346;2024-03-02T07:07:20;96464.03;;;6.06;100.00
82171;BME280;71755;48.038;14.346;2024-03-02T07:09:47;96475.19;;;6.08;100.00
82171;BME280;71755;48.038;14.346;2024-03-02T07:12:14;96474.41;;;6.07;100.00
82171;BME280;71755;48.038;14.346;2024-03-02T07:14:40;96472.22;;;6.04;100.00
82171;BME280;71755;48.038;14.346;2024-03-02T07:17:37;96479.44;;;6.09;100.00
82171;BME280;71755;48.038;14.346;2024-03-02T07:20:03;96485.38;;;6.16;100.00
82171;BME280;71755;48.038;14.346;2024-03-02T07:22:29;96495.25;;;6.20;100.00
82171;BME280;71755;48.038;14.346;2024-03-02T07:24:55;96493.72;;;6.24;100.00
82171;BME280;71755;48.038;14.346;2024-03-02T07:27:21;96496.22;;;6.31;100.00
82171;BME280;71755;48.038;14.346;2024-03-02T07:29:47;96494.16;;;6.33;100.00
82171;BME280;71755;48.038;14.346;2024-03-02T07:32:13;96503.72;;;6.34;100.00
82171;BME280;71755;48.038;14.346;2024-03-02T07:34:39;96497.13;;;6.37;100.00
82171;BME280;71755;48.038;14.346;2024-03-02T07:37:05;96503.84;;;6.44;100.00
82171;BME280;71755;48.038;14.346;2024-03-02T07:39:31;96509.16;;;6.44;100.00
82171;BME280;71755;48.038;14.346;2024-03-02T07:41:57;96509.47;;;6.48;100.00
82171;BME280;71755;48.038;14.346;2024-03-02T07:44:23;96510.03;;;6.50;100.00
82171;BME280;71755;48.038;14.346;2024-03-02T07:46:49;96519.53;;;6.46;100.00
82171;BME280;71755;48.038;14.346;2024-03-02T07:49:16;96503.34;;;6.47;100.00
82171;BME280;71755;48.038;14.346;2024-03-02T07:51:42;96505.84;;;6.54;100.00
82171;BME280;71755;48.038;14.346;2024-03-02T07:54:09;96515.22;;;6.62;100.00
82171;BME280;71755;48.038;14.346;2024-03-02T07:56:35;96514.25;;;6.68;100.00
82171;BME280;71755;48.038;14.346;2024-03-02T07:59:02;96509.19;;;6.66;100.00
82171;BME280;71755;48.038;14.346;2024-03-02T08:01:31;96511.38;;;6.69;100.00
82171;BME280;71755;48.038;14.346;2024-03-02T08:03:58;96507.97;;;6.74;100.00
82171;BME280;71755;48.038;14.346;2024-03-02T08:06:28;96515.63;;;6.70;100.00
82171;BME280;71755;48.038;14.346;2024-03-02T08:08:55;96509.81;;;6.73;100.00
82171;BME280;71755;48.038;14.346;2024-03-02T08:11:21;96508.28;;;6.77;100.00
82171;BME280;71755;48.038;14.346;2024-03-02T08:13:47;96509.88;;;6.78;100.00
82171;BME280;71755;48.038;14.346;2024-03-02T08:16:15;96512.59;;;6.83;100.00
82171;BME280;71755;48.038;14.346;2024-03-02T08:18:41;96513.41;;;6.84;100.00
82171;BME280;71755;48.038;14.346;2024-03-02T08:21:08;96519.84;;;6.88;100.00
82171;BME280;71755;48.038;14.346;2024-03-02T08:23:35;96516.81;;;6.79;100.00
82171;BME280;71755;48.038;14.346;2024-03-02T08:26:01;96516.56;;;6.81;100.00
82171;BME280;71755;48.038;14.346;2024-03-02T08:28:27;96517.41;;;6.86;100.00
82171;BME280;71755;48.038;14.346;2024-03-02T08:30:52;96519.41;;;6.96;100.00
82171;BME280;71755;48.038;14.346;2024-03-02T08:33:18;96524.47;;;6.98;100.00
82171;BME280;71755;48.038;14.346;2024-03-02T08:35:44;96528.47;;;7.00;100.00
82171;BME280;71755;48.038;14.346;2024-03-02T08:38:10;96525.63;;;6.85;100.00
82171;BME280;71755;48.038;14.346;2024-03-02T08:40:35;96524.41;;;6.71;100.00
82171;BME280;71755;48.038;14.346;2024-03-02T08:43:01;96534.22;;;6.70;100.00
82171;BME280;71755;48.038;14.346;2024-03-02T08:45:27;96527.13;;;6.59;100.00
82171;BME280;71755;48.038;14.346;2024-03-02T08:47:53;96530.75;;;6.53;100.00
82171;BME280;71755;48.038;14.346;2024-03-02T08:50:19;96536.19;;;6.63;100.00
82171;BME280;71755;48.038;14.346;2024-03-02T08:52:45;96538.03;;;6.79;100.00
82171;BME280;71755;48.038;14.346;2024-03-02T08:55:11;96545.00;;;6.85;100.00
82171;BME280;71755;48.038;14.346;2024-03-02T08:57:37;96542.59;;;6.84;100.00
82171;BME280;71755;48.038;14.346;2024-03-02T09:00:04;96545.31;;;6.89;100.00
82171;BME280;71755;48.038;14.346;2024-03-02T09:02:31;96541.94;;;6.94;100.00
82171;BME280;71755;48.038;14.346;2024-03-02T09:04:57;96543.91;;;7.03;100.00
82171;BME280;71755;48.038;14.346;2024-03-02T09:07:23;96545.03;;;7.07;100.00
82171;BME280;71755;48.038;14.346;2024-03-02T09:09:49;96546.47;;;7.15;100.00
82171;BME280;71755;48.038;14.346;2024-03-02T09:12:16;96547.56;;;7.19;100.00
82171;BME280;71755;48.038;14.346;2024-03-02T09:14:42;96553.81;;;7.30;100.00
82171;BME280;71755;48.038;14.346;2024-03-02T09:17:07;96544.59;;;7.37;100.00
82171;BME280;71755;48.038;14.346;2024-03-02T09:19:36;96553.41;;;7.43;100.00
82171;BME280;71755;48.038;14.346;2024-03-02T09:22:02;96549.53;;;7.50;100.00
82171;BME280;71755;48.038;14.346;2024-03-02T09:24:32;96552.75;;;7.52;100.00
82171;BME280;71755;48.038;14.346;2024-03-02T09:27:01;96558.00;;;7.47;100.00
82171;BME280;71755;48.038;14.346;2024-03-02T09:29:27;96549.78;;;7.49;100.00
82171;BME280;71755;48.038;14.346;2024-03-02T09:31:53;96542.31;;;7.46;100.00
82171;BME280;71755;48.038;14.346;2024-03-02T09:34:19;96549.91;;;7.37;97.63
82171;BME280;71755;48.038;14.346;2024-03-02T09:36:45;96554.09;;;7.33;96.71
82171;BME280;71755;48.038;14.346;2024-03-02T09:39:11;96551.50;;;7.38;97.92
82171;BME280;71755;48.038;14.346;2024-03-02T09:41:38;96544.53;;;7.32;99.33
82171;BME280;71755;48.038;14.346;2024-03-02T09:44:05;96549.19;;;7.20;99.50
82171;BME280;71755;48.038;14.346;2024-03-02T09:46:32;96554.00;;;7.23;100.00
82171;BME280;71755;48.038;14.346;2024-03-02T09:48:58;96560.66;;;7.26;100.00
82171;BME280;71755;48.038;14.346;2024-03-02T09:51:24;96551.88;;;7.25;100.00
82171;BME280;71755;48.038;14.346;2024-03-02T09:53:50;96556.72;;;7.28;100.00
82171;BME280;71755;48.038;14.346;2024-03-02T09:56:16;96554.06;;;7.28;100.00
82171;BME280;71755;48.038;14.346;2024-03-02T09:58:44;96555.72;;;7.12;100.00
82171;BME280;71755;48.038;14.346;2024-03-02T10:01:10;96554.75;;;7.18;100.00
82171;BME280;71755;48.038;14.346;2024-03-02T10:03:39;96560.91;;;7.24;100.00
82171;BME280;71755;48.038;14.346;2024-03-02T10:06:24;96554.59;;;7.30;100.00
82171;BME280;71755;48.038;14.346;2024-03-02T10:08:51;96555.41;;;7.31;100.00
82171;BME280;71755;48.038;14.346;2024-03-02T10:11:34;96554.06;;;7.06;100.00
82171;BME280;71755;48.038;14.346;2024-03-02T10:14:13;96552.13;;;7.02;100.00
82171;BME280;71755;48.038;14.346;2024-03-02T10:16:44;96553.22;;;7.06;100.00
82171;BME280;71755;48.038;14.346;2024-03-02T10:19:21;96548.34;;;6.98;100.00
82171;BME280;71755;48.038;14.346;2024-03-02T10:21:54;96554.91;;;6.90;98.91
82171;BME280;71755;48.038;14.346;2024-03-02T10:24:23;96537.38;;;6.89;99.18
82171;BME280;71755;48.038;14.346;2024-03-02T10:26:51;96543.03;;;6.98;100.00
82171;BME280;71755;48.038;14.346;2024-03-02T10:29:16;96544.47;;;7.05;98.58
82171;BME280;71755;48.038;14.346;2024-03-02T10:31:46;96546.47;;;7.15;98.03
82171;BME280;71755;48.038;14.346;2024-03-02T10:34:12;96548.50;;;7.30;97.20
82171;BME280;71755;48.038;14.346;2024-03-02T10:36:43;96541.50;;;7.45;94.10
82171;BME280;71755;48.038;14.346;2024-03-02T10:39:13;96537.50;;;7.70;94.93
82171;BME280;71755;48.038;14.346;2024-03-02T10:41:40;96535.69;;;7.75;93.42
82171;BME280;71755;48.038;14.346;2024-03-02T10:44:08;96528.94;;;7.90;94.25
82171;BME280;71755;48.038;14.346;2024-03-02T10:46:36;96525.84;;;8.03;94.11
82171;BME280;71755;48.038;14.346;2024-03-02T10:49:04;96526.00;;;7.91;92.53
82171;BME280;71755;48.038;14.346;2024-03-02T10:51:32;96526.06;;;7.96;94.24
82171;BME280;71755;48.038;14.346;2024-03-02T10:54:00;96521.75;;;7.90;93.37
82171;BME280;71755;48.038;14.346;2024-03-02T10:56:40;96531.16;;;8.03;94.29
82171;BME280;71755;48.038;14.346;2024-03-02T10:59:17;96521.28;;;7.98;91.98
82171;BME280;71755;48.038;14.346;2024-03-02T11:01:47;96528.22;;;7.99;91.28
82171;BME280;71755;48.038;14.346;2024-03-02T11:04:16;96531.78;;;8.15;91.33
82171;BME280;71755;48.038;14.346;2024-03-02T11:06:56;96527.41;;;8.31;92.03
82171;BME280;71755;48.038;14.346;2024-03-02T11:09:27;96512.63;;;8.45;92.27
82171;BME280;71755;48.038;14.346;2024-03-02T11:12:12;96511.84;;;8.50;92.89
82171;BME280;71755;48.038;14.346;2024-03-02T11:14:42;96515.38;;;8.55;92.27
82171;BME280;71755;48.038;14.346;2024-03-02T11:17:14;96515.72;;;8.69;91.87
82171;BME280;71755;48.038;14.346;2024-03-02T11:19:43;96503.78;;;8.76;91.42
82171;BME280;71755;48.038;14.346;2024-03-02T11:22:11;96501.38;;;8.75;91.15
82171;BME280;71755;48.038;14.346;2024-03-02T11:24:37;96500.03;;;8.77;90.67
82171;BME280;71755;48.038;14.346;2024-03-02T11:27:05;96500.56;;;8.74;89.50
82171;BME280;71755;48.038;14.346;2024-03-02T11:32:22;96489.91;;;9.37;91.69
82171;BME280;71755;48.038;14.346;2024-03-02T11:34:50;96475.81;;;9.57;90.16
82171;BME280;71755;48.038;14.346;2024-03-02T11:37:18;96476.06;;;9.60;87.36
82171;BME280;71755;48.038;14.346;2024-03-02T11:39:49;96477.13;;;9.44;87.03
82171;BME280;71755;48.038;14.346;2024-03-02T11:42:16;96477.38;;;9.37;88.40
82171;BME280;71755;48.038;14.346;2024-03-02T11:44:45;96469.94;;;9.50;84.19
82171;BME280;71755;48.038;14.346;2024-03-02T11:47:13;96476.66;;;9.67;83.40
82171;BME280;71755;48.038;14.346;2024-03-02T11:52:08;96466.53;;;9.75;82.73
82171;BME280;71755;48.038;14.346;2024-03-02T11:54:37;96463.31;;;9.93;84.78
82171;BME280;71755;48.038;14.346;2024-03-02T11:57:16;96452.31;;;10.60;85.34
82171;BME280;71755;48.038;14.346;2024-03-02T11:59:44;96445.88;;;10.72;84.17
82171;BME280;71755;48.038;14.346;2024-03-02T12:02:18;96438.91;;;10.86;83.39
82171;BME280;71755;48.038;14.346;2024-03-02T12:04:46;96437.88;;;10.72;83.71
82171;BME280;71755;48.038;14.346;2024-03-02T12:07:21;96434.66;;;10.70;83.07
82171;BME280;71755;48.038;14.346;2024-03-02T12:09:48;96440.59;;;10.56;83.42
82171;BME280;71755;48.038;14.346;2024-03-02T12:12:14;96431.00;;;10.40;83.15
82171;BME280;71755;48.038;14.346;2024-03-02T12:14:50;96422.44;;;10.58;85.29
82171;BME280;71755;48.038;14.346;2024-03-02T12:17:17;96412.34;;;11.05;83.48
82171;BME280;71755;48.038;14.346;2024-03-02T12:19:42;96418.22;;;11.07;81.58
82171;BME280;71755;48.038;14.346;2024-03-02T12:22:08;96404.81;;;11.17;82.12
82171;BME280;71755;48.038;14.346;2024-03-02T12:24:34;96407.66;;;11.31;81.05
82171;BME280;71755;48.038;14.346;2024-03-02T12:27:00;96407.09;;;11.39;80.66
82171;BME280;71755;48.038;14.346;2024-03-02T12:29:26;96409.78;;;11.34;81.09
82171;BME280;71755;48.038;14.346;2024-03-02T12:31:53;96407.59;;;11.41;78.60
82171;BME280;71755;48.038;14.346;2024-03-02T12:34:22;96402.44;;;11.49;79.28
82171;BME280;71755;48.038;14.346;2024-03-02T12:36:49;96402.25;;;11.41;77.58
82171;BME280;71755;48.038;14.346;2024-03-02T12:39:20;96405.41;;;11.53;78.49
82171;BME280;71755;48.038;14.346;2024-03-02T12:41:51;96393.16;;;11.42;78.20
82171;BME280;71755;48.038;14.346;2024-03-02T12:44:19;96391.66;;;11.25;79.17
82171;BME280;71755;48.038;14.346;2024-03-02T12:46:46;96394.28;;;11.36;79.92
82171;BME280;71755;48.038;14.346;2024-03-02T12:49:15;96386.44;;;11.44;79.71
82171;BME280;71755;48.038;14.346;2024-03-02T12:51:46;96388.78;;;11.56;78.83
82171;BME280;71755;48.038;14.346;2024-03-02T12:54:17;96387.50;;;11.48;79.15
82171;BME280;71755;48.038;14.346;2024-03-02T12:56:44;96381.75;;;11.65;78.42
82171;BME280;71755;48.038;14.346;2024-03-02T12:59:23;96377.53;;;11.59;77.65
82171;BME280;71755;48.038;14.346;2024-03-02T13:01:55;96381.28;;;11.58;77.95
82171;BME280;71755;48.038;14.346;2024-03-02T13:04:27;96372.56;;;11.76;77.52
82171;BME280;71755;48.038;14.346;2024-03-02T13:06:55;96365.53;;;11.91;77.35